»·PEaware :: N427LJ KSJC-KMRY

N427LJ :: KSJC-KMRY

FLIGHT INFORMATION

Flight Status: Arrived
Operator: Privately registered:
United States
More flights under this callsign
Pilot: Anonymous 27948 (27948)
Aircraft: CESSNA 172 SKYHAWK
(C172)
More flights by this aircraft type
Origin: KSJC Mineta San Jose Intl
United States
Destination: KMRY Monterey Peninsula
United States
More flights between these airports :: More routes between these airports
Route: +SNS
File this flight plan on PilotEdge
Remarks:
Altitude:
(Current/Filed)
7,000ft
Speed:
(Current/Filed)
120kts
Departed: 30-May-20 11:50 AM
Arrived: 30-May-20 12:33 PM
Distance/Time
Traveled:
47nm/0:43
Distance/Time
To Go:
Arrived

Flight Plot

Page will automatically refresh every two minutes.

Flight plan parsing failed; only flown route is shown


Map Options




Map Legend


Flown Route
Filed Route
Departure Airport
Arrival Airport
Navaid (VOR, NDB)
Fix

Horizontal Profiles

Position Reports

Time Latitude Longitude Heading Altitude Ground
Speed
30-May-20 11:27 37.359258 -121.931011 14 51ft 0kts
30-May-20 11:28 37.359258 -121.931011 14 51ft 0kts
30-May-20 11:29 37.359258 -121.931011 14 51ft 0kts
30-May-20 11:30 37.359258 -121.931011 14 51ft 0kts
30-May-20 11:31 37.359258 -121.931011 14 51ft 0kts
30-May-20 11:32 37.359258 -121.931011 14 51ft 0kts
30-May-20 11:33 37.359258 -121.931011 14 51ft 0kts
30-May-20 11:34 37.359258 -121.931011 14 51ft 0kts
30-May-20 11:35 37.359258 -121.931011 14 51ft 0kts
30-May-20 11:36 37.359258 -121.931011 14 51ft 0kts
30-May-20 11:37 37.359258 -121.931011 14 51ft 0kts
30-May-20 11:38 37.359258 -121.931011 14 51ft 0kts
30-May-20 11:39 37.359258 -121.931011 14 51ft 0kts
30-May-20 11:40 37.359258 -121.931011 14 51ft 0kts
30-May-20 11:41 37.359320 -121.930991 13 51ft 3kts
30-May-20 11:42 37.361118 -121.932624 318 50ft 14kts
30-May-20 11:43 37.364873 -121.936746 318 43ft 17kts
30-May-20 11:44 37.367955 -121.940135 322 41ft 12kts
30-May-20 11:45 37.370330 -121.940310 340 40ft 7kts
30-May-20 11:46 37.371981 -121.941803 5 40ft 0kts
30-May-20 11:47 37.372082 -121.941784 17 40ft 0kts
30-May-20 11:48 37.372580 -121.940935 90 40ft 9kts
30-May-20 11:49 37.362119 -121.929682 139 546ft 76kts
30-May-20 11:50 37.345955 -121.912724 139 1595ft 77kts
30-May-20 11:51 37.329526 -121.895469 139 2563ft 78kts
30-May-20 11:52 37.310676 -121.875777 140 2999ft 102kts
30-May-20 11:53 37.288290 -121.852482 140 3713ft 103kts
30-May-20 11:54 37.266810 -121.830121 140 4511ft 98kts
30-May-20 11:55 37.246331 -121.808794 139 5306ft 93kts
30-May-20 11:56 37.226997 -121.788639 139 6099ft 87kts
30-May-20 11:57 37.206119 -121.777775 166 6884ft 77kts
30-May-20 11:58 37.178984 -121.769622 166 6981ft 112kts
30-May-20 11:59 37.149317 -121.760268 165 6981ft 108kts
30-May-20 12:00 37.120326 -121.750905 165 6981ft 107kts
30-May-20 12:01 37.090628 -121.741241 165 6983ft 118kts
30-May-20 12:02 37.057711 -121.730542 165 6981ft 124kts
30-May-20 12:03 37.024172 -121.719659 165 6981ft 124kts
30-May-20 12:04 36.990642 -121.708772 165 6981ft 124kts
30-May-20 12:05 36.957101 -121.697890 165 6981ft 124kts
30-May-20 12:06 36.923494 -121.686996 165 6981ft 124kts
30-May-20 12:07 36.891073 -121.676509 165 6981ft 118kts
30-May-20 12:08 36.859424 -121.666268 165 6981ft 117kts
30-May-20 12:09 36.827859 -121.656063 165 6981ft 117kts
30-May-20 12:10 36.796245 -121.645851 165 6981ft 117kts
30-May-20 12:11 36.766496 -121.630373 153 6671ft 114kts
30-May-20 12:12 36.738203 -121.612745 153 6170ft 113kts
30-May-20 12:13 36.709299 -121.594741 153 5671ft 117kts
30-May-20 12:14 36.680364 -121.576719 153 5280ft 109kts
30-May-20 12:15 36.652598 -121.559658 155 5150ft 112kts
30-May-20 12:16 36.624845 -121.544025 151 4923ft 104kts
30-May-20 12:17 36.599108 -121.526672 147 4990ft 106kts
30-May-20 12:18 36.572134 -121.509015 153 4976ft 110kts
30-May-20 12:19 36.544630 -121.491868 153 4973ft 110kts
30-May-20 12:20 36.516261 -121.487605 201 4973ft 109kts
30-May-20 12:21 36.490828 -121.506202 253 4971ft 109kts
30-May-20 12:22 36.487859 -121.543906 277 4972ft 110kts
30-May-20 12:23 36.497963 -121.581160 291 4681ft 114kts
30-May-20 12:24 36.509142 -121.615213 292 4575ft 104kts
30-May-20 12:25 36.520787 -121.649438 292 4097ft 107kts
30-May-20 12:26 36.532500 -121.683802 292 3290ft 109kts
30-May-20 12:27 36.544277 -121.718403 292 2287ft 108kts
30-May-20 12:28 36.555093 -121.750269 292 1878ft 86kts
30-May-20 12:29 36.565118 -121.778194 294 1655ft 78kts
30-May-20 12:30 36.573787 -121.804850 291 818ft 80kts
30-May-20 12:31 36.581714 -121.828774 292 381ft 75kts
30-May-20 12:32 36.585414 -121.841174 212 230ft 11kts
30-May-20 12:33 36.585913 -121.844061 293 210ft 26kts
30-May-20 12:34 36.588201 -121.850393 293 175ft 16kts

Navigation Log

Ident Type
Flight plan parsing failed, navigation log unavailable